Kobuk Valley National Park, AK

10:29 PM AKDT op 20 april 2015 (GMT -0800)
Baker Memorial | | Change Station
CLOSE
Current Station
Luchthaven
Location: Kiana,
Geometrische hoogte: 151 ft
Nabije weerstations

Hoogte 151 ft 66.98 °N, 160.44 °W | Updated 28 minutes ago

Clear
Helder
28 °F
Voelt als 28 °F
N
0
Wind Variabel Wind van noord

Vandaag
Hoog -- | Laag -- °F
--% Kans op neerslag
Gisteren
Hoog -- | Laag -- °F
Precip. -- inches
6:31 AM 10:51 PM
Wassende halvemaan, 8% visible
Druk 29.85 inches
Zicht 10.0 mijlen
Wolken Helder
Dauwpunt 19 °F
Vochtigheid 69%
Neerslag 0.00 inches
Dikte sneeuw Niet beschikbaar.
UV 0 van de 12
Pollen Niet beschikbaar.
Luchtkwaliteit Niet beschikbaar.
Flu Activity Sporadic
METAR PAIK 210601Z AUTO 00000KT 10SM CLR M02/M07 A2972 RMK AO2 SLP108 T10221072 11006 21033 51002 FZRANO

More Conditions Fewer Conditions

Druk 29.85 inches
Zicht 10.0 mijlen
Wolken Helder
Dauwpunt 19 °F
Vochtigheid 69%
Neerslag 0.00 inches
Dikte sneeuw Niet beschikbaar.
UV 0 van de 12
Pollen Niet beschikbaar.
Luchtkwaliteit Niet beschikbaar.
Flu Activity Sporadic
METAR PAIK 210601Z AUTO 00000KT 10SM CLR M02/M07 A2972 RMK AO2 SLP108 T10221072 11006 21033 51002 FZRANO

More Conditions Fewer Conditions

10-Day Weather Forecast

Almanac

Astronomie

Apr. 20, 2015 Opkomst Ondergang
Werkelijke tijd
Burgerlijke schemering
Nautische schemering
Astronomische schemering
Maan
Golflengte van het zichtbare licht
Daglengte
Tomorrow will be .
, % of the Moon is Illuminated

Extremen vandaag

State Highs State Lows

Community

WunderPhotos

Upload Photos

1,815,319 foto’s ge-upload!

WunderBlogs® & News

Nearby

Luchtkwaliteit

  Luchtkwaliteit LK-index Verontreinigende stof
Not available.

Dikte sneeuw

Station Depth Geometrische hoogte

Aardbevingen

Stad Distance Mag. Time & Date
Minimum magnitude displayed is 2.5.

Watertemperatuur langs de kust

Plaats Temperatuur

Stations

Nabije weerstations

Locatie station Temp. Gevoelstemperatuur Dauwpunt Vochtigheid Wind Precip. Hoogte Geactualiseerd Type